AirNav   Everest Fuels
 
 1593 users online  

FD75 Advent Health Zephyrhills Heliport
Zephyrhills, Florida, USA

GOING TO ZEPHYRHILLS?


FAA INFORMATION EFFECTIVE 02 JANUARY 2020

Location

FAA Identifier: FD75
Lat/Long: 28-15-42.9400N 082-11-08.3400W
28-15.715667N 082-11.139000W
28.2619278,-82.1856500
(estimated)
Elevation: 160 ft. / 49 m (estimated)
From city: 2 miles N of ZEPHYRHILLS, FL
Time zone: UTC -5 (UTC -4 during Daylight Saving Time)
Zip code: 33541

Heliport Operations

Heliport use: Private use. Permission required prior to landing
Activation date: 12/2016
Control tower: no
ARTCC: MIAMI CENTER
FSS: SAINT PETERSBURG FLIGHT SERVICE STATION
Attendance: 
Wind indicator: yes
Segmented circle: no

Heliport Communications

WX AWOS-3PT at ZPH (2.6 nm SE): 118.975 (813-780-0031)
WX AWOS-3 at PCM (16 nm S): 120.025 (813-764-8259)
WX AWOS-3 at VDF (17 nm SW): 121.125 (813-630-0924)
WX AWOS-3PT at LAL (19 nm SE): 118.025 (863-834-2030)
WX ASOS at BKV (19 nm NW): 134.725 (352-799-5881)

Nearby radio navigation aids

VOR radial/distance  VOR name  Freq  Var
LALr330/18.9LAKELAND VORTAC116.0001E
PIEr056/33.9ST PETERSBURG VORTAC116.4005W

Heliport Services

Runway Information

Helipad H1

Dimensions: 60 x 60 ft. / 18 x 18 m
Surface: concrete
Traffic pattern: leftleft

Heliport Ownership and Management from official FAA records

Ownership: Privately-owned
Owner: ADVENT HEALTH ZEPHYRHILLS
7050 GALL BLVD
ZEPHYRHILLS, FL 33541
Phone 813-783-6100
Manager: TIM MOREIRA
7050 GALL BLVD
ZEPHYRHILLS, FL 33541
Phone 813-783-6189

Additional Remarks

FOR CD CTC TAMPA APCH AT 813-878-2528.

Instrument Procedures

There are no published instrument procedures at FD75.

Some nearby airports with instrument procedures:

KZPH - Zephyrhills Municipal Airport (3 nm SE)
KPCM - Plant City Airport (16 nm S)
KVDF - Tampa Executive Airport (17 nm SW)
KLAL - Lakeland Linder International Airport (19 nm SE)
KBKV - Brooksville-Tampa Bay Regional Airport (19 nm NW)
 
Loc | Ops | Rwys | IFR | FBO | Links
Com | Nav | Svcs | Stats | Notes
Aerial photo
No photo
 
Airport distance calculator
Flying to Advent Health Zephyrhills Heliport? Find the distance to fly.

From to FD75

Sunrise and sunset
Times for 23-Jan-2020
 Local
(UTC-5)
 Zulu
(UTC)
Morning civil twilight06:5611:56
Sunrise07:2112:21
Sunset18:0023:00
Evening civil twilight18:2523:25

Current date and time
Zulu (UTC)  24-Jan-2020 00:06:44
Local (UTC-5)  23-Jan-2020 19:06:44
 
METAR
KZPH 
3nm SE 
232355Z AUTO 05006KT 10SM OVC012 17/15 A3006 RMK A02 T01710155 10215 20170 402150106
KPCM 
16nm S 
232355Z AUTO 08011G16KT 10SM OVC012 18/17 A3005 RMK AO2
KVDF 
17nm SW 
232355Z AUTO 07006KT 10SM OVC015 18/16 A3004 RMK AO2
KBKV 
19nm NW 
232353Z 07007KT 10SM FEW018 17/14 A3006 RMK AO2 SLP176 T01720144 10228 20172 51008
KLAL 
20nm SE 
232347Z 07010KT 10SM OVC012 17/15 A3004
TAF
KLAL 
20nm SE 
231736Z 2318/2418 05009KT P6SM SCT020 BKN250 FM232100 08005KT P6SM BKN040 BKN250 FM240700 11004KT 2SM BR OVC004 FM241500 15007KT P6SM FEW010 SCT040
NOTAMs
Click for the latest NOTAMs
NOTAMs are issued by the DoD/FAA and will open in a separate window not controlled by AirNav.

 

 
 

Would you like to see your business listed on this page?

 If your business provides an interesting product or service to pilots, flight crews, aircraft, or users of the Advent Health Zephyrhills Heliport, you should consider listing it here.  To start the listing process, click on the button below
 
Add a business
 

Other Pages about Advent Health Zephyrhills Heliport

Update a link
 
Copyright © AirNav, LLC. All rights reserved. Privacy Policy  Contact